KMFV/MFV METAR and TAF weather

Enter ICAO airport designator
Station Type Date Time Source
KMFV METAR 2019/04/20 18:15 UTC NOAA

KMFV 201815Z AUTO 17012G19KT 10SM CLR 21/12 A2974 RMK AO2 T02060120


Station Type Date Time Source
KMFV Decoded METAR 2019/04/20 18:15 UTC NOAA

Melfa / Accomack Airport, VA, United States (KMFV) 37-39N 075-46W
Apr 20, 2019 - 02:15 PM EDT / 2019.04.20 1815 UTC
Wind: from the S (170 degrees) at 14 MPH (12 KT) gusting to 22 MPH (19 KT):0
Visibility: 10 mile(s):0
Sky conditions: clear
Temperature: 69.1 F (20.6 C)
Dew Point: 53.6 F (12.0 C)
Relative Humidity: 57%
Pressure (altimeter): 29.74 in. Hg (1007 hPa)
ob: KMFV 201815Z AUTO 17012G19KT 10SM CLR 21/12 A2974 RMK AO2 T02060120
cycle: 18

Station Type Date Time Source
KMFV TAF UTC NOAA

Error!

Example: see airport list